sensor_id;sensor_type;location;lat;lon;timestamp;P1;durP1;ratioP1;P2;durP2;ratioP2
36391;SDS011;22639;42.690;23.356;2023-09-07T00:00:39;8.60;;;7.80;;
36391;SDS011;22639;42.690;23.356;2023-09-07T00:03:04;8.52;;;7.72;;
36391;SDS011;22639;42.690;23.356;2023-09-07T00:05:30;10.23;;;9.15;;
36391;SDS011;22639;42.690;23.356;2023-09-07T00:07:56;10.52;;;9.45;;
36391;SDS011;22639;42.690;23.356;2023-09-07T00:10:22;9.45;;;8.55;;
36391;SDS011;22639;42.690;23.356;2023-09-07T00:12:48;9.70;;;8.38;;
36391;SDS011;22639;42.690;23.356;2023-09-07T00:15:13;9.70;;;8.70;;
36391;SDS011;22639;42.690;23.356;2023-09-07T00:17:38;11.45;;;10.20;;
36391;SDS011;22639;42.690;23.356;2023-09-07T00:20:04;10.65;;;9.65;;
36391;SDS011;22639;42.690;23.356;2023-09-07T00:22:36;10.30;;;9.20;;
36391;SDS011;22639;42.690;23.356;2023-09-07T00:25:02;11.05;;;9.95;;
36391;SDS011;22639;42.690;23.356;2023-09-07T00:27:29;11.10;;;10.07;;
36391;SDS011;22639;42.690;23.356;2023-09-07T00:29:54;13.10;;;11.80;;
36391;SDS011;22639;42.690;23.356;2023-09-07T00:32:20;11.80;;;10.65;;
36391;SDS011;22639;42.690;23.356;2023-09-07T00:34:45;12.02;;;10.65;;
36391;SDS011;22639;42.690;23.356;2023-09-07T00:37:11;12.75;;;9.90;;
36391;SDS011;22639;42.690;23.356;2023-09-07T00:39:37;10.52;;;9.43;;
36391;SDS011;22639;42.690;23.356;2023-09-07T00:42:02;10.13;;;9.13;;
36391;SDS011;22639;42.690;23.356;2023-09-07T00:44:28;10.52;;;9.00;;
36391;SDS011;22639;42.690;23.356;2023-09-07T00:46:54;11.40;;;9.95;;
36391;SDS011;22639;42.690;23.356;2023-09-07T00:49:19;11.45;;;9.82;;
36391;SDS011;22639;42.690;23.356;2023-09-07T00:51:44;9.95;;;8.95;;
36391;SDS011;22639;42.690;23.356;2023-09-07T00:54:10;9.57;;;8.65;;
36391;SDS011;22639;42.690;23.356;2023-09-07T00:56:36;11.43;;;10.32;;
36391;SDS011;22639;42.690;23.356;2023-09-07T00:59:01;10.85;;;9.75;;
36391;SDS011;22639;42.690;23.356;2023-09-07T01:01:27;10.98;;;9.85;;
36391;SDS011;22639;42.690;23.356;2023-09-07T01:03:54;11.52;;;10.32;;
36391;SDS011;22639;42.690;23.356;2023-09-07T01:06:29;11.57;;;10.35;;
36391;SDS011;22639;42.690;23.356;2023-09-07T01:09:00;13.18;;;11.00;;
36391;SDS011;22639;42.690;23.356;2023-09-07T01:11:35;11.73;;;10.52;;
36391;SDS011;22639;42.690;23.356;2023-09-07T01:14:02;11.27;;;9.80;;
36391;SDS011;22639;42.690;23.356;2023-09-07T01:16:29;12.23;;;10.93;;
36391;SDS011;22639;42.690;23.356;2023-09-07T01:18:55;14.23;;;11.95;;
36391;SDS011;22639;42.690;23.356;2023-09-07T01:21:21;11.85;;;10.63;;
36391;SDS011;22639;42.690;23.356;2023-09-07T01:23:47;12.77;;;11.48;;
36391;SDS011;22639;42.690;23.356;2023-09-07T01:26:14;12.15;;;10.88;;
36391;SDS011;22639;42.690;23.356;2023-09-07T01:28:40;12.95;;;11.65;;
36391;SDS011;22639;42.690;23.356;2023-09-07T01:31:06;12.20;;;11.02;;
36391;SDS011;22639;42.690;23.356;2023-09-07T01:33:32;12.55;;;11.43;;
36391;SDS011;22639;42.690;23.356;2023-09-07T01:35:57;13.15;;;11.63;;
36391;SDS011;22639;42.690;23.356;2023-09-07T01:38:23;14.25;;;11.93;;
36391;SDS011;22639;42.690;23.356;2023-09-07T01:40:48;13.18;;;11.75;;
36391;SDS011;22639;42.690;23.356;2023-09-07T01:43:14;13.63;;;12.23;;
36391;SDS011;22639;42.690;23.356;2023-09-07T01:45:39;13.90;;;11.70;;
36391;SDS011;22639;42.690;23.356;2023-09-07T01:48:07;13.48;;;12.13;;
36391;SDS011;22639;42.690;23.356;2023-09-07T01:50:35;13.35;;;11.73;;
36391;SDS011;22639;42.690;23.356;2023-09-07T01:53:00;14.50;;;12.93;;
36391;SDS011;22639;42.690;23.356;2023-09-07T01:55:28;14.50;;;13.07;;
36391;SDS011;22639;42.690;23.356;2023-09-07T01:57:53;13.30;;;11.98;;
36391;SDS011;22639;42.690;23.356;2023-09-07T02:00:19;13.38;;;11.95;;
36391;SDS011;22639;42.690;23.356;2023-09-07T02:02:44;13.68;;;12.15;;
36391;SDS011;22639;42.690;23.356;2023-09-07T02:05:09;13.05;;;11.60;;
36391;SDS011;22639;42.690;23.356;2023-09-07T02:07:35;12.50;;;11.20;;
36391;SDS011;22639;42.690;23.356;2023-09-07T02:10:01;14.38;;;12.13;;
36391;SDS011;22639;42.690;23.356;2023-09-07T02:12:28;13.65;;;12.00;;
36391;SDS011;22639;42.690;23.356;2023-09-07T02:14:54;13.23;;;11.40;;
36391;SDS011;22639;42.690;23.356;2023-09-07T02:17:20;14.23;;;12.73;;
36391;SDS011;22639;42.690;23.356;2023-09-07T02:19:45;14.23;;;12.23;;
36391;SDS011;22639;42.690;23.356;2023-09-07T02:22:11;14.18;;;12.65;;
36391;SDS011;22639;42.690;23.356;2023-09-07T02:24:37;16.10;;;13.70;;
36391;SDS011;22639;42.690;23.356;2023-09-07T02:27:02;14.85;;;13.40;;
36391;SDS011;22639;42.690;23.356;2023-09-07T02:29:28;15.52;;;12.55;;
36391;SDS011;22639;42.690;23.356;2023-09-07T02:31:53;15.85;;;13.05;;
36391;SDS011;22639;42.690;23.356;2023-09-07T02:34:19;15.25;;;13.68;;
36391;SDS011;22639;42.690;23.356;2023-09-07T02:36:44;15.95;;;12.13;;
36391;SDS011;22639;42.690;23.356;2023-09-07T02:39:10;13.10;;;11.80;;
36391;SDS011;22639;42.690;23.356;2023-09-07T02:41:38;15.00;;;13.32;;
36391;SDS011;22639;42.690;23.356;2023-09-07T02:44:04;17.63;;;15.82;;
36391;SDS011;22639;42.690;23.356;2023-09-07T02:46:30;14.65;;;13.10;;
36391;SDS011;22639;42.690;23.356;2023-09-07T02:48:56;17.55;;;13.30;;
36391;SDS011;22639;42.690;23.356;2023-09-07T02:51:23;14.35;;;12.70;;
36391;SDS011;22639;42.690;23.356;2023-09-07T02:53:49;14.18;;;12.45;;
36391;SDS011;22639;42.690;23.356;2023-09-07T02:56:15;15.40;;;12.90;;
36391;SDS011;22639;42.690;23.356;2023-09-07T02:58:40;15.15;;;12.35;;
36391;SDS011;22639;42.690;23.356;2023-09-07T03:01:06;13.75;;;12.30;;
36391;SDS011;22639;42.690;23.356;2023-09-07T03:03:39;15.55;;;13.88;;
36391;SDS011;22639;42.690;23.356;2023-09-07T03:06:19;15.02;;;13.40;;
36391;SDS011;22639;42.690;23.356;2023-09-07T03:08:47;14.85;;;13.15;;
36391;SDS011;22639;42.690;23.356;2023-09-07T03:11:13;13.85;;;12.02;;
36391;SDS011;22639;42.690;23.356;2023-09-07T03:13:42;14.73;;;13.07;;
36391;SDS011;22639;42.690;23.356;2023-09-07T03:16:08;15.30;;;13.38;;
36391;SDS011;22639;42.690;23.356;2023-09-07T03:18:34;14.73;;;13.23;;
36391;SDS011;22639;42.690;23.356;2023-09-07T03:21:00;16.40;;;14.55;;
36391;SDS011;22639;42.690;23.356;2023-09-07T03:23:30;17.83;;;14.68;;
36391;SDS011;22639;42.690;23.356;2023-09-07T03:26:31;17.95;;;16.00;;
36391;SDS011;22639;42.690;23.356;2023-09-07T03:28:57;17.98;;;15.90;;
36391;SDS011;22639;42.690;23.356;2023-09-07T03:31:22;21.33;;;16.67;;
36391;SDS011;22639;42.690;23.356;2023-09-07T03:33:48;18.15;;;16.00;;
36391;SDS011;22639;42.690;23.356;2023-09-07T03:36:14;19.10;;;15.65;;
36391;SDS011;22639;42.690;23.356;2023-09-07T03:38:40;18.58;;;16.70;;
36391;SDS011;22639;42.690;23.356;2023-09-07T03:41:06;17.50;;;15.60;;
36391;SDS011;22639;42.690;23.356;2023-09-07T03:43:31;18.35;;;16.13;;
36391;SDS011;22639;42.690;23.356;2023-09-07T03:45:57;18.25;;;16.27;;
36391;SDS011;22639;42.690;23.356;2023-09-07T03:48:24;20.08;;;17.13;;
36391;SDS011;22639;42.690;23.356;2023-09-07T03:50:52;19.27;;;17.20;;
36391;SDS011;22639;42.690;23.356;2023-09-07T03:53:17;18.50;;;15.65;;
36391;SDS011;22639;42.690;23.356;2023-09-07T03:55:43;18.98;;;16.42;;
36391;SDS011;22639;42.690;23.356;2023-09-07T03:58:10;19.20;;;17.10;;
36391;SDS011;22639;42.690;23.356;2023-09-07T04:00:39;19.13;;;16.63;;
36391;SDS011;22639;42.690;23.356;2023-09-07T04:03:08;18.58;;;16.60;;
36391;SDS011;22639;42.690;23.356;2023-09-07T04:05:33;19.77;;;16.63;;
36391;SDS011;22639;42.690;23.356;2023-09-07T04:08:01;18.05;;;15.30;;
36391;SDS011;22639;42.690;23.356;2023-09-07T04:10:27;21.08;;;17.50;;
36391;SDS011;22639;42.690;23.356;2023-09-07T04:12:53;18.48;;;16.00;;
36391;SDS011;22639;42.690;23.356;2023-09-07T04:15:18;23.67;;;19.05;;
36391;SDS011;22639;42.690;23.356;2023-09-07T04:17:44;20.98;;;18.60;;
36391;SDS011;22639;42.690;23.356;2023-09-07T04:20:09;20.88;;;18.13;;
36391;SDS011;22639;42.690;23.356;2023-09-07T04:22:37;24.13;;;18.08;;
36391;SDS011;22639;42.690;23.356;2023-09-07T04:25:04;19.98;;;17.35;;
36391;SDS011;22639;42.690;23.356;2023-09-07T04:27:30;23.83;;;19.25;;
36391;SDS011;22639;42.690;23.356;2023-09-07T04:29:56;20.20;;;17.58;;
36391;SDS011;22639;42.690;23.356;2023-09-07T04:32:21;19.02;;;16.98;;
36391;SDS011;22639;42.690;23.356;2023-09-07T04:34:46;20.50;;;17.50;;
36391;SDS011;22639;42.690;23.356;2023-09-07T04:37:12;16.58;;;14.63;;
36391;SDS011;22639;42.690;23.356;2023-09-07T04:39:37;19.30;;;15.63;;
36391;SDS011;22639;42.690;23.356;2023-09-07T04:42:03;20.38;;;16.25;;
36391;SDS011;22639;42.690;23.356;2023-09-07T04:44:28;18.52;;;16.50;;
36391;SDS011;22639;42.690;23.356;2023-09-07T04:46:54;18.38;;;15.10;;
36391;SDS011;22639;42.690;23.356;2023-09-07T04:49:20;18.63;;;15.88;;
36391;SDS011;22639;42.690;23.356;2023-09-07T04:51:46;16.70;;;14.98;;
36391;SDS011;22639;42.690;23.356;2023-09-07T04:54:11;18.15;;;15.73;;
36391;SDS011;22639;42.690;23.356;2023-09-07T04:56:38;18.90;;;16.00;;
36391;SDS011;22639;42.690;23.356;2023-09-07T04:59:46;17.52;;;15.43;;
36391;SDS011;22639;42.690;23.356;2023-09-07T05:02:09;19.83;;;16.00;;
36391;SDS011;22639;42.690;23.356;2023-09-07T05:04:50;17.67;;;15.55;;
36391;SDS011;22639;42.690;23.356;2023-09-07T05:07:16;20.17;;;16.70;;
36391;SDS011;22639;42.690;23.356;2023-09-07T05:09:42;21.88;;;17.80;;
36391;SDS011;22639;42.690;23.356;2023-09-07T05:12:10;19.23;;;16.50;;
36391;SDS011;22639;42.690;23.356;2023-09-07T05:14:36;19.48;;;17.38;;
36391;SDS011;22639;42.690;23.356;2023-09-07T05:17:02;21.08;;;16.98;;
36391;SDS011;22639;42.690;23.356;2023-09-07T05:19:27;18.23;;;15.65;;
36391;SDS011;22639;42.690;23.356;2023-09-07T05:21:52;19.70;;;15.38;;
36391;SDS011;22639;42.690;23.356;2023-09-07T05:24:18;19.27;;;17.17;;
36391;SDS011;22639;42.690;23.356;2023-09-07T05:26:43;20.60;;;16.38;;
36391;SDS011;22639;42.690;23.356;2023-09-07T05:29:09;15.70;;;14.13;;
36391;SDS011;22639;42.690;23.356;2023-09-07T05:31:36;22.15;;;15.75;;
36391;SDS011;22639;42.690;23.356;2023-09-07T05:34:01;17.13;;;13.95;;
36391;SDS011;22639;42.690;23.356;2023-09-07T05:36:27;16.58;;;13.65;;
36391;SDS011;22639;42.690;23.356;2023-09-07T05:38:52;17.10;;;14.60;;
36391;SDS011;22639;42.690;23.356;2023-09-07T05:41:18;16.42;;;14.57;;
36391;SDS011;22639;42.690;23.356;2023-09-07T05:43:44;16.10;;;13.95;;
36391;SDS011;22639;42.690;23.356;2023-09-07T05:46:09;17.23;;;13.93;;
36391;SDS011;22639;42.690;23.356;2023-09-07T05:48:36;15.20;;;13.13;;
36391;SDS011;22639;42.690;23.356;2023-09-07T05:51:01;15.18;;;13.50;;
36391;SDS011;22639;42.690;23.356;2023-09-07T05:53:27;15.07;;;13.43;;
36391;SDS011;22639;42.690;23.356;2023-09-07T05:55:52;17.67;;;14.18;;
36391;SDS011;22639;42.690;23.356;2023-09-07T05:58:18;16.63;;;13.27;;
36391;SDS011;22639;42.690;23.356;2023-09-07T06:00:44;17.77;;;13.77;;
36391;SDS011;22639;42.690;23.356;2023-09-07T06:03:09;14.05;;;12.65;;
36391;SDS011;22639;42.690;23.356;2023-09-07T06:05:36;14.35;;;12.68;;
36391;SDS011;22639;42.690;23.356;2023-09-07T06:08:02;14.65;;;12.90;;
36391;SDS011;22639;42.690;23.356;2023-09-07T06:10:28;15.07;;;13.02;;
36391;SDS011;22639;42.690;23.356;2023-09-07T06:12:56;12.95;;;11.65;;
36391;SDS011;22639;42.690;23.356;2023-09-07T06:15:21;11.95;;;10.63;;
36391;SDS011;22639;42.690;23.356;2023-09-07T06:17:47;11.75;;;10.40;;
36391;SDS011;22639;42.690;23.356;2023-09-07T06:20:13;10.10;;;9.10;;
36391;SDS011;22639;42.690;23.356;2023-09-07T06:22:38;11.02;;;9.93;;
36391;SDS011;22639;42.690;23.356;2023-09-07T06:25:04;12.38;;;11.02;;
36391;SDS011;22639;42.690;23.356;2023-09-07T06:27:29;11.15;;;10.10;;
36391;SDS011;22639;42.690;23.356;2023-09-07T06:29:57;9.18;;;8.38;;
36391;SDS011;22639;42.690;23.356;2023-09-07T06:32:22;10.27;;;8.85;;
36391;SDS011;22639;42.690;23.356;2023-09-07T06:34:49;9.85;;;8.85;;
36391;SDS011;22639;42.690;23.356;2023-09-07T06:37:14;9.60;;;8.70;;
36391;SDS011;22639;42.690;23.356;2023-09-07T06:39:40;9.50;;;8.55;;
36391;SDS011;22639;42.690;23.356;2023-09-07T06:42:08;10.98;;;9.88;;
36391;SDS011;22639;42.690;23.356;2023-09-07T06:44:37;8.63;;;7.82;;
36391;SDS011;22639;42.690;23.356;2023-09-07T06:47:02;9.77;;;8.65;;
36391;SDS011;22639;42.690;23.356;2023-09-07T06:49:28;8.63;;;7.75;;
36391;SDS011;22639;42.690;23.356;2023-09-07T06:51:55;9.38;;;8.52;;
36391;SDS011;22639;42.690;23.356;2023-09-07T06:54:21;9.15;;;8.20;;
36391;SDS011;22639;42.690;23.356;2023-09-07T06:56:47;9.18;;;8.23;;
36391;SDS011;22639;42.690;23.356;2023-09-07T06:59:12;8.70;;;7.75;;
36391;SDS011;22639;42.690;23.356;2023-09-07T07:01:38;8.48;;;7.60;;
36391;SDS011;22639;42.690;23.356;2023-09-07T07:04:03;8.85;;;8.05;;
36391;SDS011;22639;42.690;23.356;2023-09-07T07:06:29;7.10;;;6.40;;
36391;SDS011;22639;42.690;23.356;2023-09-07T07:08:55;7.80;;;6.55;;
36391;SDS011;22639;42.690;23.356;2023-09-07T07:11:20;7.28;;;6.60;;
36391;SDS011;22639;42.690;23.356;2023-09-07T07:13:46;7.50;;;6.80;;
36391;SDS011;22639;42.690;23.356;2023-09-07T07:16:11;7.80;;;7.10;;
36391;SDS011;22639;42.690;23.356;2023-09-07T07:18:38;7.90;;;7.10;;
36391;SDS011;22639;42.690;23.356;2023-09-07T07:21:04;8.30;;;7.25;;
36391;SDS011;22639;42.690;23.356;2023-09-07T07:23:30;7.57;;;6.88;;
36391;SDS011;22639;42.690;23.356;2023-09-07T07:25:57;7.55;;;5.93;;
36391;SDS011;22639;42.690;23.356;2023-09-07T07:28:23;7.32;;;6.72;;
36391;SDS011;22639;42.690;23.356;2023-09-07T07:30:48;7.80;;;6.65;;
36391;SDS011;22639;42.690;23.356;2023-09-07T07:33:14;6.70;;;6.10;;
36391;SDS011;22639;42.690;23.356;2023-09-07T07:35:40;6.88;;;6.07;;
36391;SDS011;22639;42.690;23.356;2023-09-07T07:38:07;7.30;;;6.57;;
36391;SDS011;22639;42.690;23.356;2023-09-07T07:40:33;6.90;;;6.20;;
36391;SDS011;22639;42.690;23.356;2023-09-07T07:42:58;7.15;;;5.80;;
36391;SDS011;22639;42.690;23.356;2023-09-07T07:45:24;6.72;;;6.13;;
36391;SDS011;22639;42.690;23.356;2023-09-07T07:47:51;6.50;;;5.75;;
36391;SDS011;22639;42.690;23.356;2023-09-07T07:50:19;6.30;;;5.72;;
36391;SDS011;22639;42.690;23.356;2023-09-07T07:52:45;6.38;;;5.78;;
36391;SDS011;22639;42.690;23.356;2023-09-07T07:55:10;5.70;;;5.20;;
36391;SDS011;22639;42.690;23.356;2023-09-07T07:57:37;6.38;;;5.38;;
36391;SDS011;22639;42.690;23.356;2023-09-07T08:00:03;6.32;;;5.72;;
36391;SDS011;22639;42.690;23.356;2023-09-07T08:02:30;6.80;;;6.10;;
36391;SDS011;22639;42.690;23.356;2023-09-07T08:04:56;5.65;;;5.00;;
36391;SDS011;22639;42.690;23.356;2023-09-07T08:07:22;4.82;;;4.43;;
36391;SDS011;22639;42.690;23.356;2023-09-07T08:09:48;5.65;;;5.15;;
36391;SDS011;22639;42.690;23.356;2023-09-07T08:12:13;5.75;;;4.82;;
36391;SDS011;22639;42.690;23.356;2023-09-07T08:14:38;5.85;;;4.70;;
36391;SDS011;22639;42.690;23.356;2023-09-07T08:17:04;6.57;;;5.68;;
36391;SDS011;22639;42.690;23.356;2023-09-07T08:19:29;6.03;;;5.30;;
36391;SDS011;22639;42.690;23.356;2023-09-07T08:21:57;6.00;;;5.50;;
36391;SDS011;22639;42.690;23.356;2023-09-07T08:24:24;5.97;;;5.47;;
36391;SDS011;22639;42.690;23.356;2023-09-07T08:26:50;6.03;;;5.53;;
36391;SDS011;22639;42.690;23.356;2023-09-07T08:29:16;6.30;;;5.60;;
36391;SDS011;22639;42.690;23.356;2023-09-07T08:31:45;6.55;;;6.00;;
36391;SDS011;22639;42.690;23.356;2023-09-07T08:34:13;5.93;;;5.38;;
36391;SDS011;22639;42.690;23.356;2023-09-07T08:36:40;5.40;;;4.90;;
36391;SDS011;22639;42.690;23.356;2023-09-07T08:39:06;6.50;;;5.45;;
36391;SDS011;22639;42.690;23.356;2023-09-07T08:41:36;5.88;;;5.20;;
36391;SDS011;22639;42.690;23.356;2023-09-07T08:44:06;6.07;;;5.47;;
36391;SDS011;22639;42.690;23.356;2023-09-07T08:46:36;5.93;;;5.43;;
36391;SDS011;22639;42.690;23.356;2023-09-07T08:49:03;5.63;;;5.22;;
36391;SDS011;22639;42.690;23.356;2023-09-07T08:51:30;5.68;;;5.10;;
36391;SDS011;22639;42.690;23.356;2023-09-07T08:54:01;4.80;;;4.40;;
36391;SDS011;22639;42.690;23.356;2023-09-07T08:56:27;5.97;;;5.38;;
36391;SDS011;22639;42.690;23.356;2023-09-07T08:58:52;5.80;;;5.30;;
36391;SDS011;22639;42.690;23.356;2023-09-07T09:01:18;5.32;;;4.90;;
36391;SDS011;22639;42.690;23.356;2023-09-07T09:03:46;5.68;;;4.65;;
36391;SDS011;22639;42.690;23.356;2023-09-07T09:06:18;5.55;;;5.05;;
36391;SDS011;22639;42.690;23.356;2023-09-07T09:08:46;5.70;;;5.20;;
36391;SDS011;22639;42.690;23.356;2023-09-07T09:11:14;5.43;;;4.93;;
36391;SDS011;22639;42.690;23.356;2023-09-07T09:13:40;4.97;;;4.57;;
36391;SDS011;22639;42.690;23.356;2023-09-07T09:16:06;5.47;;;5.07;;
36391;SDS011;22639;42.690;23.356;2023-09-07T09:18:31;4.75;;;4.38;;
36391;SDS011;22639;42.690;23.356;2023-09-07T09:20:57;5.78;;;5.28;;
36391;SDS011;22639;42.690;23.356;2023-09-07T09:23:36;4.60;;;4.20;;
36391;SDS011;22639;42.690;23.356;2023-09-07T09:26:02;5.10;;;4.70;;
36391;SDS011;22639;42.690;23.356;2023-09-07T09:28:33;5.22;;;4.40;;
36391;SDS011;22639;42.690;23.356;2023-09-07T09:31:00;4.68;;;4.28;;
36391;SDS011;22639;42.690;23.356;2023-09-07T09:33:26;5.00;;;4.50;;
36391;SDS011;22639;42.690;23.356;2023-09-07T09:35:53;4.63;;;4.22;;
36391;SDS011;22639;42.690;23.356;2023-09-07T09:38:19;4.70;;;4.30;;
36391;SDS011;22639;42.690;23.356;2023-09-07T09:40:45;4.32;;;4.03;;
36391;SDS011;22639;42.690;23.356;2023-09-07T09:43:10;5.90;;;4.90;;
36391;SDS011;22639;42.690;23.356;2023-09-07T09:45:38;5.32;;;4.90;;
36391;SDS011;22639;42.690;23.356;2023-09-07T09:48:05;5.25;;;4.75;;
36391;SDS011;22639;42.690;23.356;2023-09-07T09:50:31;5.13;;;4.63;;
36391;SDS011;22639;42.690;23.356;2023-09-07T09:53:02;4.53;;;4.13;;
36391;SDS011;22639;42.690;23.356;2023-09-07T09:55:30;4.70;;;4.30;;
36391;SDS011;22639;42.690;23.356;2023-09-07T09:57:57;5.25;;;4.75;;
36391;SDS011;22639;42.690;23.356;2023-09-07T10:00:22;4.97;;;4.57;;
36391;SDS011;22639;42.690;23.356;2023-09-07T10:03:12;5.53;;;4.88;;
36391;SDS011;22639;42.690;23.356;2023-09-07T10:05:45;4.70;;;4.30;;
36391;SDS011;22639;42.690;23.356;2023-09-07T10:08:14;6.30;;;4.80;;
36391;SDS011;22639;42.690;23.356;2023-09-07T10:10:42;4.95;;;4.55;;
36391;SDS011;22639;42.690;23.356;2023-09-07T10:13:09;5.38;;;4.85;;
36391;SDS011;22639;42.690;23.356;2023-09-07T10:15:38;4.75;;;4.35;;
36391;SDS011;22639;42.690;23.356;2023-09-07T10:18:08;5.18;;;4.68;;
36391;SDS011;22639;42.690;23.356;2023-09-07T10:20:56;7.50;;;4.85;;
36391;SDS011;22639;42.690;23.356;2023-09-07T10:23:23;4.75;;;4.35;;
36391;SDS011;22639;42.690;23.356;2023-09-07T10:26:12;5.32;;;4.78;;
36391;SDS011;22639;42.690;23.356;2023-09-07T10:28:44;5.28;;;4.78;;
36391;SDS011;22639;42.690;23.356;2023-09-07T10:31:14;5.25;;;4.82;;
36391;SDS011;22639;42.690;23.356;2023-09-07T10:33:53;4.97;;;4.47;;
36391;SDS011;22639;42.690;23.356;2023-09-07T10:39:52;5.38;;;4.93;;
36391;SDS011;22639;42.690;23.356;2023-09-07T10:42:21;4.50;;;4.10;;
36391;SDS011;22639;42.690;23.356;2023-09-07T10:44:51;5.22;;;4.72;;
36391;SDS011;22639;42.690;23.356;2023-09-07T10:47:16;4.93;;;4.53;;
36391;SDS011;22639;42.690;23.356;2023-09-07T10:49:42;5.13;;;4.72;;
36391;SDS011;22639;42.690;23.356;2023-09-07T10:52:07;5.18;;;4.35;;
36391;SDS011;22639;42.690;23.356;2023-09-07T10:54:34;4.95;;;4.45;;
36391;SDS011;22639;42.690;23.356;2023-09-07T10:57:09;4.50;;;4.10;;
36391;SDS011;22639;42.690;23.356;2023-09-07T10:59:36;5.35;;;4.85;;
36391;SDS011;22639;42.690;23.356;2023-09-07T11:02:05;5.25;;;4.65;;
36391;SDS011;22639;42.690;23.356;2023-09-07T11:04:30;4.93;;;4.53;;
36391;SDS011;22639;42.690;23.356;2023-09-07T11:06:56;5.03;;;4.63;;
36391;SDS011;22639;42.690;23.356;2023-09-07T11:09:22;4.38;;;3.97;;
36391;SDS011;22639;42.690;23.356;2023-09-07T11:11:48;4.88;;;4.47;;
36391;SDS011;22639;42.690;23.356;2023-09-07T11:14:13;4.72;;;4.30;;
36391;SDS011;22639;42.690;23.356;2023-09-07T11:16:40;4.13;;;3.80;;
36391;SDS011;22639;42.690;23.356;2023-09-07T11:19:06;4.15;;;3.75;;
36391;SDS011;22639;42.690;23.356;2023-09-07T11:21:34;5.00;;;3.92;;
36391;SDS011;22639;42.690;23.356;2023-09-07T11:24:00;3.80;;;3.50;;
36391;SDS011;22639;42.690;23.356;2023-09-07T11:26:29;5.22;;;4.72;;
36391;SDS011;22639;42.690;23.356;2023-09-07T11:29:15;4.15;;;3.72;;
36391;SDS011;22639;42.690;23.356;2023-09-07T11:31:46;4.18;;;3.85;;
36391;SDS011;22639;42.690;23.356;2023-09-07T11:36:43;4.78;;;4.38;;
36391;SDS011;22639;42.690;23.356;2023-09-07T11:39:09;4.25;;;3.83;;
36391;SDS011;22639;42.690;23.356;2023-09-07T11:41:39;4.70;;;4.30;;
36391;SDS011;22639;42.690;23.356;2023-09-07T11:44:06;4.60;;;4.05;;
36391;SDS011;22639;42.690;23.356;2023-09-07T11:46:32;4.38;;;3.97;;
36391;SDS011;22639;42.690;23.356;2023-09-07T11:48:59;4.60;;;4.13;;
36391;SDS011;22639;42.690;23.356;2023-09-07T11:51:24;6.32;;;4.03;;
36391;SDS011;22639;42.690;23.356;2023-09-07T11:53:50;5.22;;;4.10;;
36391;SDS011;22639;42.690;23.356;2023-09-07T11:56:15;5.45;;;3.83;;
36391;SDS011;22639;42.690;23.356;2023-09-07T11:58:41;4.15;;;3.58;;
36391;SDS011;22639;42.690;23.356;2023-09-07T12:01:07;4.13;;;2.85;;
36391;SDS011;22639;42.690;23.356;2023-09-07T12:03:33;3.80;;;3.50;;
36391;SDS011;22639;42.690;23.356;2023-09-07T12:05:59;4.43;;;3.58;;
36391;SDS011;22639;42.690;23.356;2023-09-07T12:08:25;4.13;;;3.55;;
36391;SDS011;22639;42.690;23.356;2023-09-07T12:10:52;4.25;;;3.65;;
36391;SDS011;22639;42.690;23.356;2023-09-07T12:13:17;4.40;;;3.78;;
36391;SDS011;22639;42.690;23.356;2023-09-07T12:15:44;4.15;;;3.85;;
36391;SDS011;22639;42.690;23.356;2023-09-07T12:18:10;3.55;;;3.25;;
36391;SDS011;22639;42.690;23.356;2023-09-07T12:20:35;3.35;;;3.05;;
36391;SDS011;22639;42.690;23.356;2023-09-07T12:23:01;3.65;;;3.22;;
36391;SDS011;22639;42.690;23.356;2023-09-07T12:25:27;4.30;;;3.90;;
36391;SDS011;22639;42.690;23.356;2023-09-07T12:27:53;3.85;;;3.45;;
36391;SDS011;22639;42.690;23.356;2023-09-07T12:30:19;5.25;;;3.70;;
36391;SDS011;22639;42.690;23.356;2023-09-07T12:32:46;4.13;;;3.72;;
36391;SDS011;22639;42.690;23.356;2023-09-07T12:35:12;4.25;;;3.80;;
36391;SDS011;22639;42.690;23.356;2023-09-07T12:37:51;3.85;;;3.55;;
36391;SDS011;22639;42.690;23.356;2023-09-07T12:40:47;4.28;;;3.88;;
36391;SDS011;22639;42.690;23.356;2023-09-07T12:43:14;4.00;;;3.60;;
36391;SDS011;22639;42.690;23.356;2023-09-07T12:45:39;3.63;;;3.33;;
36391;SDS011;22639;42.690;23.356;2023-09-07T12:48:05;3.67;;;3.38;;
36391;SDS011;22639;42.690;23.356;2023-09-07T12:50:31;4.22;;;3.83;;
36391;SDS011;22639;42.690;23.356;2023-09-07T12:52:56;3.78;;;3.47;;
36391;SDS011;22639;42.690;23.356;2023-09-07T12:55:22;3.72;;;3.38;;
36391;SDS011;22639;42.690;23.356;2023-09-07T12:57:49;3.70;;;3.30;;
36391;SDS011;22639;42.690;23.356;2023-09-07T13:00:15;3.97;;;3.40;;
36391;SDS011;22639;42.690;23.356;2023-09-07T13:02:41;3.90;;;3.60;;
36391;SDS011;22639;42.690;23.356;2023-09-07T13:05:06;3.92;;;3.53;;
36391;SDS011;22639;42.690;23.356;2023-09-07T13:10:31;4.10;;;3.30;;
36391;SDS011;22639;42.690;23.356;2023-09-07T13:12:57;3.40;;;3.10;;
36391;SDS011;22639;42.690;23.356;2023-09-07T13:15:23;3.65;;;3.35;;
36391;SDS011;22639;42.690;23.356;2023-09-07T13:17:48;3.42;;;3.13;;
36391;SDS011;22639;42.690;23.356;2023-09-07T13:20:14;4.43;;;4.03;;
36391;SDS011;22639;42.690;23.356;2023-09-07T13:22:39;4.38;;;4.05;;
36391;SDS011;22639;42.690;23.356;2023-09-07T13:25:06;5.40;;;4.18;;
36391;SDS011;22639;42.690;23.356;2023-09-07T13:27:32;3.55;;;3.25;;
36391;SDS011;22639;42.690;23.356;2023-09-07T13:29:57;4.15;;;3.75;;
36391;SDS011;22639;42.690;23.356;2023-09-07T13:32:29;4.75;;;3.75;;
36391;SDS011;22639;42.690;23.356;2023-09-07T13:35:00;7.40;;;3.17;;
36391;SDS011;22639;42.690;23.356;2023-09-07T13:37:25;3.97;;;3.58;;
36391;SDS011;22639;42.690;23.356;2023-09-07T13:39:51;4.05;;;3.45;;
36391;SDS011;22639;42.690;23.356;2023-09-07T13:42:16;3.50;;;3.20;;
36391;SDS011;22639;42.690;23.356;2023-09-07T13:44:42;3.53;;;3.22;;
36391;SDS011;22639;42.690;23.356;2023-09-07T13:47:10;4.13;;;3.72;;
36391;SDS011;22639;42.690;23.356;2023-09-07T13:49:36;3.67;;;3.38;;
36391;SDS011;22639;42.690;23.356;2023-09-07T13:52:03;4.35;;;3.95;;
36391;SDS011;22639;42.690;23.356;2023-09-07T13:54:29;5.72;;;4.30;;
36391;SDS011;22639;42.690;23.356;2023-09-07T13:56:55;4.05;;;3.63;;
36391;SDS011;22639;42.690;23.356;2023-09-07T13:59:21;5.07;;;4.57;;
36391;SDS011;22639;42.690;23.356;2023-09-07T14:01:46;7.68;;;4.20;;
36391;SDS011;22639;42.690;23.356;2023-09-07T14:04:12;4.40;;;4.00;;
36391;SDS011;22639;42.690;23.356;2023-09-07T14:06:37;4.43;;;3.58;;
36391;SDS011;22639;42.690;23.356;2023-09-07T14:09:02;4.28;;;3.83;;
36391;SDS011;22639;42.690;23.356;2023-09-07T14:11:28;4.68;;;4.28;;
36391;SDS011;22639;42.690;23.356;2023-09-07T14:13:53;4.03;;;3.63;;
36391;SDS011;22639;42.690;23.356;2023-09-07T14:16:19;4.00;;;3.60;;
36391;SDS011;22639;42.690;23.356;2023-09-07T14:18:46;5.10;;;3.80;;
36391;SDS011;22639;42.690;23.356;2023-09-07T14:21:14;3.97;;;3.58;;
36391;SDS011;22639;42.690;23.356;2023-09-07T14:23:40;3.97;;;3.58;;
36391;SDS011;22639;42.690;23.356;2023-09-07T14:26:07;3.97;;;3.58;;
36391;SDS011;22639;42.690;23.356;2023-09-07T14:28:33;4.13;;;3.78;;
36391;SDS011;22639;42.690;23.356;2023-09-07T14:30:59;4.25;;;3.85;;